EST,Max TemperatureF,Mean TemperatureF,Min TemperatureF,Max Dew PointF,MeanDew PointF,Min DewpointF,Max Humidity, Mean Humidity, Min Humidity, Max Sea Level PressureIn, Mean Sea Level PressureIn, Min Sea Level PressureIn, Max VisibilityMiles, Mean VisibilityMiles, Min VisibilityMiles, Max Wind SpeedMPH, Mean Wind SpeedMPH, Max Gust SpeedMPH,PrecipitationIn, CloudCover, Events, WindDirDegrees
2012-2-1,51,48,44,50,42,21,100,83,30,30.21,30.14,30.07,10,8,0,20,13,25,0.13,7,Rain,230
2012-2-2,51,50,48,50,47,41,100,95,67,30.22,30.10,30.04,10,7,0,16,11,22,0.01,7,Fog-Rain-Thunderstorm,262
2012-2-3,59,49,39,34,31,27,75,48,33,30.42,30.34,30.29,10,10,10,10,5,,0.00,0,,165
2012-2-4,50,46,42,50,41,30,100,83,47,30.28,30.15,30.04,10,8,1,20,8,30,0.23,7,Rain,214
2012-2-5,50,42,35,50,44,36,100,100,100,30.18,30.06,29.98,10,3,0,10,6,,0.00,8,Fog-Rain,304
2012-2-6,44,38,33,43,37,34,100,96,81,30.17,30.14,30.11,10,8,0,17,4,21,0.00,6,Fog,244
2012-2-7,50,40,30,32,31,30,100,77,47,30.20,30.16,30.14,10,10,7,6,3,,0.00,0,,297
2012-2-8,35,32,30,36,32,30,100,95,81,30.21,30.16,30.12,10,8,2,13,3,16,0.00,7,Snow,298
2012-2-9,33,30,26,30,26,23,100,87,80,30.25,30.20,30.15,10,10,5,9,4,,0.00,6,Snow,342
2012-2-10,37,30,24,34,29,25,100,96,81,30.14,30.01,29.90,10,8,1,15,3,18,0.02,5,Snow,227
2012-2-11,32,23,14,32,20,9,100,87,63,30.15,29.95,29.81,10,4,0,21,10,37,0.01,8,Snow,292
2012-2-12,32,21,10,18,11,7,86,71,51,30.23,30.19,30.16,10,9,2,16,10,25,0.00,3,Snow,284
2012-2-13,41,28,15,25,19,14,93,67,45,30.21,30.14,30.02,10,10,10,9,3,,0.00,3,,218
2012-2-14,37,34,32,37,31,19,100,86,52,30.00,29.94,29.91,10,6,0,15,8,24,0.02,8,Fog-Rain-Snow,210
2012-2-15,55,44,32,43,34,32,100,74,41,30.23,30.16,30.09,10,8,0,12,2,16,0.00,6,Fog,165
2012-2-16,53,48,44,52,43,30,100,84,44,30.12,30.07,30.03,10,9,2,18,13,30,0.04,8,Rain,227
2012-2-17,50,42,35,43,34,27,100,75,46,30.18,30.13,30.11,10,10,7,9,5,,0.00,4,Rain,312
2012-2-18,53,45,37,32,29,27,75,55,38,30.09,30.05,30.00,10,10,10,8,2,,0.00,4,,303
2012-2-19,42,36,30,36,32,30,100,90,61,29.98,29.87,29.75,10,5,0,10,6,,0.66,8,Rain-Snow,13
2012-2-20,41,28,15,32,27,16,100,89,65,30.25,30.15,30.00,10,8,0,7,2,,0.14,3,Fog,5
2012-2-21,51,42,33,37,28,19,75,60,48,30.12,30.00,29.89,10,10,10,25,12,38,0.00,3,,190
2012-2-22,50,42,35,46,39,30,100,85,57,29.93,29.77,29.56,10,9,2,30,9,34,0.63,5,Rain-Thunderstorm,229
2012-2-23,64,54,44,52,48,43,100,84,55,29.67,29.60,29.50,10,10,3,18,10,28,0.09,4,Rain-Thunderstorm,217
2012-2-24,62,47,32,59,44,25,100,80,43,29.93,29.66,29.47,10,10,4,26,18,37,0.21,7,Rain-Snow-Thunderstorm,253
2012-2-25,32,30,26,28,23,19,93,72,64,30.29,30.11,29.94,10,8,0,22,13,40,0.00,6,Snow,286
2012-2-26,53,38,24,27,20,14,80,49,26,30.35,30.30,30.27,10,10,10,10,4,,0.00,0,,173
2012-2-27,59,47,35,36,29,21,62,51,39,30.39,30.34,30.29,10,10,10,13,6,20,0.00,2,,224
2012-2-28,64,50,35,36,33,30,81,52,32,30.41,30.34,30.23,10,10,10,10,2,,0.00,1,,139
2012-2-29,60,56,53,59,53,41,100,90,58,30.17,29.97,29.80,10,8,0,24,14,34,0.98,8,Rain-Thunderstorm,210